createdAt,value
2023-04-06T00:00:31.125Z,6.47
2023-04-06T00:02:59.576Z,7.03
2023-04-06T00:05:28.800Z,7.27
2023-04-06T00:07:57.233Z,6.90
2023-04-06T00:10:25.877Z,7.50
2023-04-06T00:12:54.399Z,7.83
2023-04-06T00:15:24.318Z,7.80
2023-04-06T00:17:52.909Z,7.23
2023-04-06T00:20:21.856Z,7.67
2023-04-06T00:22:50.252Z,8.17
2023-04-06T00:25:18.835Z,8.37
2023-04-06T00:27:47.251Z,6.80
2023-04-06T00:30:15.713Z,8.23
2023-04-06T00:32:45.613Z,7.90
2023-04-06T00:35:14.031Z,7.57
2023-04-06T00:37:42.450Z,8.10
2023-04-06T00:40:12.045Z,7.10
2023-04-06T00:42:40.679Z,7.80
2023-04-06T00:45:10.390Z,7.97
2023-04-06T00:47:38.916Z,7.43
2023-04-06T00:50:10.085Z,7.97
2023-04-06T00:52:38.599Z,8.47
2023-04-06T00:55:08.004Z,7.87
2023-04-06T00:57:36.458Z,8.80
2023-04-06T01:00:05.446Z,8.53
2023-04-06T01:02:33.928Z,8.30
2023-04-06T01:05:02.454Z,8.67
2023-04-06T01:07:32.309Z,9.00
2023-04-06T01:10:00.682Z,8.60
2023-04-06T01:12:29.203Z,8.83
2023-04-06T01:14:57.593Z,9.20
2023-04-06T01:17:26.254Z,9.13
2023-04-06T01:19:54.970Z,9.10
2023-04-06T01:22:26.296Z,8.97
2023-04-06T01:24:54.656Z,9.13
2023-04-06T01:27:23.083Z,9.13
2023-04-06T01:29:51.447Z,9.27
2023-04-06T01:32:20.000Z,9.63
2023-04-06T01:34:48.431Z,8.33
2023-04-06T01:37:16.815Z,9.20
2023-04-06T01:39:47.391Z,9.10
2023-04-06T01:42:15.768Z,8.73
2023-04-06T01:44:44.111Z,10.20
2023-04-06T01:47:12.443Z,10.03
2023-04-06T01:49:40.999Z,9.90
2023-04-06T01:52:09.351Z,9.20
2023-04-06T01:54:37.727Z,8.67
2023-04-06T01:57:07.494Z,10.13
2023-04-06T01:59:35.876Z,9.80
2023-04-06T02:02:04.723Z,9.50
2023-04-06T02:04:33.057Z,8.80
2023-04-06T02:07:01.479Z,9.13
2023-04-06T02:09:29.785Z,9.13
2023-04-06T02:11:58.193Z,9.20
2023-04-06T02:14:28.390Z,9.67
2023-04-06T02:16:56.818Z,8.57
2023-04-06T02:19:25.255Z,9.30
2023-04-06T02:21:53.634Z,9.20
2023-04-06T02:24:21.998Z,10.10
2023-04-06T02:26:50.438Z,9.40
2023-04-06T02:29:18.860Z,10.17
2023-04-06T02:31:48.705Z,9.10
2023-04-06T02:34:18.759Z,9.43
2023-04-06T02:36:47.893Z,9.47
2023-04-06T02:39:16.849Z,9.93
2023-04-06T02:41:45.732Z,9.43
2023-04-06T02:44:14.138Z,9.77
2023-04-06T02:46:42.471Z,9.60
2023-04-06T02:49:12.264Z,9.37
2023-04-06T02:51:40.670Z,10.27
2023-04-06T02:54:09.047Z,9.00
2023-04-06T02:56:37.659Z,9.97
2023-04-06T02:59:06.513Z,9.30
2023-04-06T03:01:35.072Z,10.70
2023-04-06T03:04:03.545Z,10.33
2023-04-06T03:06:33.312Z,10.40
2023-04-06T03:09:01.808Z,9.97
2023-04-06T03:11:30.144Z,10.63
2023-04-06T03:13:58.658Z,10.60
2023-04-06T03:16:27.039Z,10.57
2023-04-06T03:18:55.464Z,10.60
2023-04-06T03:21:23.830Z,10.00
2023-04-06T03:23:53.608Z,10.90
2023-04-06T03:26:23.306Z,11.03
2023-04-06T03:28:51.736Z,11.27
2023-04-06T03:31:20.585Z,10.83
2023-04-06T03:33:49.037Z,11.60
2023-04-06T03:36:17.407Z,11.13
2023-04-06T03:38:45.855Z,11.07
2023-04-06T03:41:15.885Z,10.50
2023-04-06T03:43:44.329Z,11.07
2023-04-06T03:46:12.834Z,10.37
2023-04-06T03:48:41.257Z,10.37
2023-04-06T03:51:09.642Z,11.30
2023-04-06T03:53:38.791Z,10.60
2023-04-06T03:56:07.855Z,11.23
2023-04-06T03:58:37.628Z,10.90
2023-04-06T04:01:06.356Z,10.97
2023-04-06T04:03:34.827Z,11.23
2023-04-06T04:06:03.407Z,11.20
2023-04-06T04:08:31.787Z,11.47
2023-04-06T04:11:00.154Z,11.57
2023-04-06T04:13:28.605Z,10.77
2023-04-06T04:15:58.885Z,12.33
2023-04-06T04:18:27.237Z,12.23
2023-04-06T04:20:55.697Z,11.77
2023-04-06T04:23:24.118Z,12.20
2023-04-06T04:25:52.867Z,11.80
2023-04-06T04:28:21.161Z,11.37
2023-04-06T04:30:49.591Z,10.97
2023-04-06T04:33:19.332Z,11.30
2023-04-06T04:35:47.735Z,10.53
2023-04-06T04:38:16.154Z,11.57
2023-04-06T04:40:44.564Z,11.00
2023-04-06T04:43:12.914Z,11.63
2023-04-06T04:45:41.458Z,11.17
2023-04-06T04:48:10.424Z,10.77
2023-04-06T04:50:40.324Z,10.87
2023-04-06T04:53:08.634Z,12.37
2023-04-06T04:55:36.975Z,12.23
2023-04-06T04:58:05.567Z,11.90
2023-04-06T05:00:33.976Z,11.33
2023-04-06T05:03:02.436Z,11.13
2023-04-06T05:05:31.086Z,11.77
2023-04-06T05:08:00.955Z,11.27
2023-04-06T05:10:29.453Z,11.17
2023-04-06T05:12:57.935Z,10.70
2023-04-06T05:15:26.517Z,11.73
2023-04-06T05:17:55.131Z,10.67
2023-04-06T05:20:23.633Z,11.53
2023-04-06T05:22:52.127Z,11.23
2023-04-06T05:25:22.261Z,11.00
2023-04-06T05:27:50.747Z,11.50
2023-04-06T05:30:19.351Z,10.80
2023-04-06T05:32:47.824Z,10.37
2023-04-06T05:35:16.269Z,10.43
2023-04-06T05:37:44.776Z,10.77
2023-04-06T05:40:13.286Z,11.00
2023-04-06T05:42:44.451Z,10.23
2023-04-06T05:45:17.622Z,10.50
2023-04-06T05:47:46.723Z,10.40
2023-04-06T05:50:17.470Z,10.07
2023-04-06T05:52:47.453Z,9.17
2023-04-06T05:55:15.812Z,10.47
2023-04-06T05:57:45.568Z,10.43
2023-04-06T06:00:15.647Z,10.90
2023-04-06T06:02:44.456Z,9.83
2023-04-06T06:05:12.956Z,9.27
2023-04-06T06:07:41.383Z,10.37
2023-04-06T06:10:11.184Z,10.87
2023-04-06T06:12:39.607Z,9.07
2023-04-06T06:15:10.351Z,10.23
2023-04-06T06:17:39.817Z,9.80
2023-04-06T06:20:09.677Z,9.40
2023-04-06T06:22:38.264Z,10.30
2023-04-06T06:25:06.944Z,9.67
2023-04-06T06:27:35.352Z,9.43
2023-04-06T06:30:04.069Z,10.10
2023-04-06T06:32:34.378Z,10.10
2023-04-06T06:35:03.729Z,9.03
2023-04-06T06:37:32.106Z,8.97
2023-04-06T06:40:00.517Z,8.83
2023-04-06T06:42:28.849Z,9.00
2023-04-06T06:44:57.309Z,9.93
2023-04-06T06:47:26.548Z,10.73
2023-04-06T06:49:57.353Z,9.27
2023-04-06T06:52:25.947Z,9.00
2023-04-06T06:54:56.403Z,8.90
2023-04-06T06:57:25.986Z,8.60
2023-04-06T07:00:13.714Z,8.10
2023-04-06T07:02:42.463Z,8.27
2023-04-06T07:05:24.259Z,8.23
2023-04-06T07:07:55.721Z,8.40
2023-04-06T07:10:24.441Z,8.80
2023-04-06T07:12:53.079Z,8.53
2023-04-06T07:15:21.549Z,8.20
2023-04-06T07:17:50.098Z,8.37
2023-04-06T07:20:20.265Z,7.90
2023-04-06T07:22:49.363Z,7.90
2023-04-06T07:25:17.840Z,8.37
2023-04-06T07:27:46.211Z,7.87
2023-04-06T07:30:14.910Z,8.07
2023-04-06T07:32:43.313Z,7.57
2023-04-06T07:35:11.773Z,8.17
2023-04-06T07:37:41.549Z,6.80
2023-04-06T07:40:10.968Z,8.50
2023-04-06T07:42:39.324Z,6.30
2023-04-06T07:45:08.745Z,7.37
2023-04-06T07:47:37.102Z,7.53
2023-04-06T07:50:06.334Z,7.07
2023-04-06T07:52:36.998Z,7.10
2023-04-06T07:55:08.674Z,6.87
2023-04-06T07:57:37.057Z,6.50
2023-04-06T08:00:06.267Z,6.50
2023-04-06T08:02:34.955Z,6.90
2023-04-06T08:05:03.533Z,7.40
2023-04-06T08:07:32.131Z,6.97
2023-04-06T08:10:00.904Z,6.83
2023-04-06T08:12:30.994Z,6.30
2023-04-06T08:14:59.402Z,7.30
2023-04-06T08:17:31.305Z,6.70
2023-04-06T08:19:59.934Z,6.87
2023-04-06T08:22:28.439Z,6.57
2023-04-06T08:24:56.869Z,6.97
2023-04-06T08:27:25.239Z,7.43
2023-04-06T08:29:55.073Z,7.03
2023-04-06T08:32:23.540Z,7.83
2023-04-06T08:34:55.118Z,7.63
2023-04-06T08:37:24.509Z,7.43
2023-04-06T08:39:52.892Z,8.23
2023-04-06T08:42:22.984Z,7.47
2023-04-06T08:44:53.523Z,7.50
2023-04-06T08:47:25.045Z,7.57
2023-04-06T08:49:54.821Z,7.50
2023-04-06T08:52:23.314Z,7.93
2023-04-06T08:54:51.653Z,7.23
2023-04-06T08:57:21.644Z,8.07
2023-04-06T08:59:50.496Z,7.47
2023-04-06T09:02:20.730Z,8.47
2023-04-06T09:04:54.617Z,8.57
2023-04-06T09:07:23.700Z,8.53
2023-04-06T09:09:52.947Z,8.37
2023-04-06T09:12:28.860Z,7.97
2023-04-06T09:14:58.454Z,7.90
2023-04-06T09:17:28.021Z,8.20
2023-04-06T09:19:58.358Z,8.50
2023-04-06T09:22:28.334Z,8.30
2023-04-06T09:24:57.188Z,7.77
2023-04-06T09:27:33.151Z,7.87
2023-04-06T09:30:14.945Z,8.83
2023-04-06T09:32:51.178Z,8.13
2023-04-06T09:35:22.199Z,7.90
2023-04-06T09:37:52.747Z,8.00
2023-04-06T09:40:23.310Z,7.13
2023-04-06T09:42:54.207Z,8.00
2023-04-06T09:45:22.960Z,7.70
2023-04-06T09:47:55.074Z,7.23
2023-04-06T09:50:26.349Z,8.07
2023-04-06T09:52:56.702Z,7.87
2023-04-06T09:55:29.612Z,7.80
2023-04-06T09:58:03.471Z,7.87
2023-04-06T10:00:35.073Z,8.43
2023-04-06T10:03:12.071Z,7.63
2023-04-06T10:05:48.789Z,8.83
2023-04-06T10:08:18.729Z,7.37
2023-04-06T10:10:48.592Z,7.27
2023-04-06T10:13:18.006Z,7.83
2023-04-06T10:15:47.035Z,8.13
2023-04-06T10:18:16.776Z,7.70
2023-04-06T10:20:51.513Z,7.53
2023-04-06T10:23:26.430Z,8.07
2023-04-06T10:25:56.050Z,8.17
2023-04-06T10:28:27.249Z,8.70
2023-04-06T10:31:00.491Z,7.80
2023-04-06T10:33:29.695Z,8.03
2023-04-06T10:36:00.968Z,8.97
2023-04-06T10:38:39.783Z,7.70
2023-04-06T10:41:11.334Z,6.60
2023-04-06T10:43:41.103Z,7.50
2023-04-06T10:46:11.059Z,7.93
2023-04-06T10:48:41.262Z,7.30
2023-04-06T10:51:15.600Z,8.10
2023-04-06T10:53:45.440Z,7.90
2023-04-06T10:56:15.938Z,6.70
2023-04-06T10:58:48.460Z,6.67
2023-04-06T11:01:18.407Z,6.93
2023-04-06T11:03:47.658Z,7.27
2023-04-06T11:06:22.806Z,6.97
2023-04-06T11:08:51.305Z,7.50
2023-04-06T11:11:21.154Z,8.50
2023-04-06T11:13:53.934Z,7.43
2023-04-06T11:16:23.696Z,7.60
2023-04-06T11:18:54.530Z,8.80
2023-04-06T11:21:36.732Z,7.80
2023-04-06T11:24:13.061Z,8.37
2023-04-06T11:26:46.976Z,7.03
2023-04-06T11:29:17.262Z,7.37
2023-04-06T11:31:48.884Z,7.43
2023-04-06T11:34:20.528Z,7.70
2023-04-06T11:36:51.744Z,6.50
2023-04-06T11:43:16.476Z,6.50
2023-04-06T11:45:45.509Z,6.97
2023-04-06T11:48:23.822Z,6.80
2023-04-06T11:50:58.788Z,5.97
2023-04-06T11:53:29.111Z,6.63
2023-04-06T11:55:57.608Z,6.40
2023-04-06T11:58:25.986Z,6.60
2023-04-06T12:00:54.605Z,6.87
2023-04-06T12:03:23.009Z,6.10
2023-04-06T12:05:51.592Z,6.30
2023-04-06T12:08:19.992Z,6.70
2023-04-06T12:10:49.879Z,7.03
2023-04-06T12:13:18.257Z,6.70
2023-04-06T12:15:46.714Z,6.30
2023-04-06T12:18:15.142Z,6.47
2023-04-06T12:20:43.521Z,6.70
2023-04-06T12:23:11.904Z,7.10
2023-04-06T12:25:42.253Z,5.90
2023-04-06T12:28:12.254Z,6.27
2023-04-06T12:30:42.178Z,6.57
2023-04-06T12:33:10.682Z,5.37
2023-04-06T12:35:39.941Z,5.07
2023-04-06T12:38:08.316Z,4.30
2023-04-06T12:40:39.995Z,4.27
2023-04-06T12:43:08.504Z,5.40
2023-04-06T12:45:38.305Z,6.07
2023-04-06T12:48:06.760Z,5.70
2023-04-06T12:50:35.175Z,6.13
2023-04-06T12:53:03.566Z,5.67
2023-04-06T12:55:35.402Z,6.03
2023-04-06T12:58:04.089Z,5.13
2023-04-06T13:00:33.125Z,4.80
2023-04-06T13:03:02.911Z,4.70
2023-04-06T13:05:32.450Z,4.97
2023-04-06T13:08:01.599Z,4.60
2023-04-06T13:10:30.040Z,4.27
2023-04-06T13:12:58.358Z,4.60
2023-04-06T13:15:26.773Z,5.10
2023-04-06T13:17:56.617Z,5.10
2023-04-06T13:20:26.875Z,4.63
2023-04-06T13:22:55.233Z,4.10
2023-04-06T13:25:23.563Z,4.00
2023-04-06T13:27:52.066Z,4.00
2023-04-06T13:30:20.566Z,3.95
2023-04-06T13:32:49.064Z,4.43
2023-04-06T13:35:17.804Z,3.72
2023-04-06T13:37:47.846Z,4.22
2023-04-06T13:40:16.945Z,4.47
2023-04-06T13:42:46.282Z,3.80
2023-04-06T13:45:14.671Z,3.85
2023-04-06T13:47:43.041Z,3.22
2023-04-06T13:50:11.919Z,3.00
2023-04-06T13:52:40.433Z,2.90
2023-04-06T13:55:10.821Z,3.50
2023-04-06T13:57:39.081Z,3.67
2023-04-06T14:00:09.351Z,3.25
2023-04-06T14:02:38.064Z,3.08
2023-04-06T14:05:07.265Z,3.00
2023-04-06T14:07:35.769Z,2.97
2023-04-06T14:10:04.450Z,3.10
2023-04-06T14:12:34.119Z,2.67
2023-04-06T14:15:02.442Z,2.58
2023-04-06T14:17:30.917Z,2.65
2023-04-06T14:19:59.322Z,2.75
2023-04-06T14:22:27.674Z,2.72
2023-04-06T14:24:56.812Z,2.78
2023-04-06T14:27:25.237Z,2.63
2023-04-06T14:29:56.084Z,2.83
2023-04-06T14:32:25.891Z,2.60
2023-04-06T14:34:54.236Z,2.55
2023-04-06T14:37:26.142Z,2.65
2023-04-06T14:39:54.688Z,2.83
2023-04-06T14:42:22.998Z,2.65
2023-04-06T14:44:51.724Z,2.80
2023-04-06T14:47:22.507Z,2.60
2023-04-06T14:49:52.596Z,2.53
2023-04-06T14:52:21.106Z,2.40
2023-04-06T14:54:49.545Z,2.22
2023-04-06T14:57:17.814Z,2.28
2023-04-06T14:59:46.339Z,2.03
2023-04-06T15:02:14.662Z,2.58
2023-04-06T15:04:44.427Z,2.45
2023-04-06T15:07:13.203Z,2.70
2023-04-06T15:09:41.479Z,2.60
2023-04-06T15:12:09.956Z,3.40
2023-04-06T15:14:38.489Z,2.97
2023-04-06T15:17:06.809Z,2.80
2023-04-06T15:19:35.214Z,3.20
2023-04-06T15:22:04.920Z,2.70
2023-04-06T15:24:33.342Z,2.60
2023-04-06T15:27:01.605Z,3.53
2023-04-06T15:29:29.949Z,2.90
2023-04-06T15:31:58.313Z,2.90
2023-04-06T15:34:26.769Z,2.80
2023-04-06T15:36:55.050Z,2.60
2023-04-06T15:39:25.570Z,2.80
2023-04-06T15:41:53.829Z,2.83
2023-04-06T15:44:22.668Z,2.87
2023-04-06T15:46:51.945Z,2.73
2023-04-06T15:49:20.474Z,2.70
2023-04-06T15:51:49.314Z,2.80
2023-04-06T15:54:18.238Z,2.50
2023-04-06T15:56:48.014Z,2.93
2023-04-06T15:59:16.927Z,3.07
2023-04-06T16:01:47.049Z,2.87
2023-04-06T16:04:15.630Z,2.63
2023-04-06T16:06:44.136Z,3.03
2023-04-06T16:09:12.514Z,3.60
2023-04-06T16:11:40.992Z,3.13
2023-04-06T16:14:10.975Z,3.30
2023-04-06T16:16:39.945Z,3.43
2023-04-06T16:19:08.311Z,3.10
2023-04-06T16:21:36.555Z,3.10
2023-04-06T16:24:06.708Z,3.20
2023-04-06T16:26:35.652Z,2.93
2023-04-06T16:29:03.991Z,3.40
2023-04-06T16:31:34.260Z,3.30
2023-04-06T16:34:02.621Z,3.03
2023-04-06T16:36:33.885Z,3.13
2023-04-06T16:39:11.575Z,3.30
2023-04-06T16:41:40.939Z,2.97
2023-04-06T16:44:10.787Z,3.20
2023-04-06T16:46:41.553Z,3.03
2023-04-06T16:49:09.940Z,3.60
2023-04-06T16:51:38.213Z,3.40
2023-04-06T16:54:06.670Z,3.07
2023-04-06T16:56:34.995Z,3.23
2023-04-06T16:59:03.507Z,3.73
2023-04-06T17:01:31.919Z,3.23
2023-04-06T17:04:02.099Z,3.57
2023-04-06T17:06:33.433Z,3.20
2023-04-06T17:09:02.299Z,3.47
2023-04-06T17:11:43.590Z,3.67
2023-04-06T17:14:14.239Z,3.77
2023-04-06T17:16:43.302Z,3.57
2023-04-06T17:19:13.222Z,3.83
2023-04-06T17:21:43.212Z,3.03
2023-04-06T17:24:12.102Z,3.63
2023-04-06T17:26:40.513Z,2.97
2023-04-06T17:29:08.803Z,3.40
2023-04-06T17:31:37.167Z,3.10
2023-04-06T17:34:05.611Z,3.60
2023-04-06T17:36:35.373Z,3.50
2023-04-06T17:39:03.919Z,2.60
2023-04-06T17:41:34.581Z,3.40
2023-04-06T17:44:02.970Z,3.07
2023-04-06T17:46:31.459Z,3.17
2023-04-06T17:48:59.800Z,3.10
2023-04-06T17:51:28.287Z,3.33
2023-04-06T17:53:58.019Z,2.77
2023-04-06T17:56:28.708Z,3.00
2023-04-06T17:58:58.042Z,3.10
2023-04-06T18:01:26.787Z,3.33
2023-04-06T18:03:55.139Z,3.63
2023-04-06T18:06:25.668Z,3.40
2023-04-06T18:08:54.568Z,3.27
2023-04-06T18:11:25.749Z,3.13
2023-04-06T18:13:54.178Z,3.50
2023-04-06T18:16:22.682Z,3.37
2023-04-06T18:18:51.222Z,3.40
2023-04-06T18:21:19.606Z,3.53
2023-04-06T18:23:48.031Z,4.63
2023-04-06T18:26:18.171Z,4.57
2023-04-06T18:28:49.195Z,4.70
2023-04-06T18:31:17.688Z,4.70
2023-04-06T18:33:46.938Z,4.83
2023-04-06T18:36:15.658Z,4.60
2023-04-06T18:38:45.483Z,5.57
2023-04-06T18:41:14.878Z,4.83
2023-04-06T18:43:43.242Z,4.47
2023-04-06T18:46:14.442Z,4.37
2023-04-06T18:48:44.436Z,4.97
2023-04-06T18:51:12.914Z,4.70
2023-04-06T18:53:41.326Z,5.57
2023-04-06T18:56:17.539Z,5.50
2023-04-06T18:58:48.523Z,5.17
2023-04-06T19:01:30.937Z,5.67
2023-04-06T19:04:01.076Z,5.67
2023-04-06T19:06:29.808Z,4.77
2023-04-06T19:08:59.006Z,5.17
2023-04-06T19:11:27.415Z,5.13
2023-04-06T19:13:56.145Z,4.50
2023-04-06T19:16:26.517Z,4.10
2023-04-06T19:18:54.997Z,4.40
2023-04-06T19:21:26.334Z,4.53
2023-04-06T19:23:56.158Z,4.37
2023-04-06T19:26:27.911Z,4.47
2023-04-06T19:28:56.373Z,5.17
2023-04-06T19:31:28.064Z,4.00
2023-04-06T19:33:56.686Z,5.67
2023-04-06T19:36:25.125Z,4.73
2023-04-06T19:38:53.609Z,4.67
2023-04-06T19:41:22.576Z,5.37
2023-04-06T19:43:51.399Z,4.60
2023-04-06T19:46:19.964Z,5.77
2023-04-06T19:48:49.794Z,5.50
2023-04-06T19:51:18.125Z,5.00
2023-04-06T19:53:46.428Z,5.10
2023-04-06T19:56:16.321Z,4.60
2023-04-06T19:58:44.786Z,4.27
2023-04-06T20:01:13.094Z,4.47
2023-04-06T20:03:42.010Z,4.30
2023-04-06T20:06:11.896Z,4.30
2023-04-06T20:08:40.202Z,4.57
2023-04-06T20:11:08.596Z,4.20
2023-04-06T20:13:37.726Z,3.80
2023-04-06T20:16:06.187Z,4.23
2023-04-06T20:18:34.516Z,3.37
2023-04-06T20:21:02.815Z,3.27
2023-04-06T20:23:34.959Z,3.20
2023-04-06T20:26:03.255Z,4.10
2023-04-06T20:28:31.615Z,3.23
2023-04-06T20:31:00.631Z,3.57
2023-04-06T20:33:29.222Z,3.50
2023-04-06T20:35:58.723Z,3.40
2023-04-06T20:38:33.237Z,3.57
2023-04-06T20:41:03.765Z,3.13
2023-04-06T20:43:32.536Z,3.67
2023-04-06T20:46:02.416Z,3.43
2023-04-06T20:48:33.623Z,3.97
2023-04-06T20:51:03.171Z,4.07
2023-04-06T20:53:31.814Z,3.73
2023-04-06T20:56:02.145Z,4.53
2023-04-06T20:58:31.875Z,3.57
2023-04-06T21:01:00.180Z,3.30
2023-04-06T21:03:28.841Z,3.43
2023-04-06T21:05:59.948Z,2.90
2023-04-06T21:08:28.356Z,3.53
2023-04-06T21:10:56.759Z,3.30
2023-04-06T21:13:25.051Z,2.90
2023-04-06T21:15:56.248Z,3.27
2023-04-06T21:18:24.801Z,2.90
2023-04-06T21:20:53.275Z,3.70
2023-04-06T21:23:21.798Z,3.03
2023-04-06T21:25:51.999Z,2.87
2023-04-06T21:28:20.567Z,3.00
2023-04-06T21:30:48.916Z,2.90
2023-04-06T21:33:18.683Z,3.60
2023-04-06T21:35:47.185Z,2.77
2023-04-06T21:38:15.974Z,2.30
2023-04-06T21:40:44.277Z,2.13
2023-04-06T21:43:12.578Z,2.60
2023-04-06T21:45:40.847Z,2.60
2023-04-06T21:48:09.246Z,2.60
2023-04-06T21:50:42.134Z,3.00
2023-04-06T21:53:10.724Z,2.97
2023-04-06T21:55:44.010Z,3.17
2023-04-06T21:58:12.387Z,2.77
2023-04-06T22:00:41.102Z,3.87
2023-04-06T22:03:09.538Z,5.07
2023-04-06T22:05:38.430Z,5.70
2023-04-06T22:08:09.534Z,5.83
2023-04-06T22:10:41.060Z,5.67
2023-04-06T22:13:09.376Z,5.43
2023-04-06T22:15:37.762Z,5.80
2023-04-06T22:18:06.339Z,5.30
2023-04-06T22:20:34.704Z,5.17
2023-04-06T22:23:02.974Z,5.93
2023-04-06T22:25:33.156Z,5.60
2023-04-06T22:28:01.473Z,5.90
2023-04-06T22:30:29.787Z,5.67
2023-04-06T22:32:58.256Z,5.73
2023-04-06T22:35:26.912Z,5.87
2023-04-06T22:37:55.413Z,6.23
2023-04-06T22:40:23.929Z,5.60
2023-04-06T22:42:53.739Z,5.57
2023-04-06T22:45:21.986Z,5.33
2023-04-06T22:47:50.428Z,5.83
2023-04-06T22:50:19.121Z,5.90
2023-04-06T22:52:47.519Z,5.83
2023-04-06T22:55:15.874Z,6.10
2023-04-06T22:57:44.161Z,6.67
2023-04-06T23:00:14.856Z,5.80
2023-04-06T23:02:43.443Z,5.83
2023-04-06T23:05:12.148Z,6.17
2023-04-06T23:07:40.588Z,6.07
2023-04-06T23:10:09.594Z,6.53
2023-04-06T23:12:37.921Z,6.13
2023-04-06T23:15:06.936Z,5.37
2023-04-06T23:17:36.979Z,6.20
2023-04-06T23:20:06.095Z,5.93
2023-04-06T23:22:34.555Z,6.60
2023-04-06T23:25:02.899Z,5.67
2023-04-06T23:27:31.191Z,6.13
2023-04-06T23:29:59.748Z,5.80
2023-04-06T23:32:28.124Z,5.83
2023-04-06T23:34:57.895Z,6.17
2023-04-06T23:37:26.239Z,5.67
2023-04-06T23:39:54.647Z,6.20
2023-04-06T23:42:23.120Z,6.40
2023-04-06T23:44:57.414Z,6.10
2023-04-06T23:47:25.857Z,6.27
2023-04-06T23:49:54.158Z,6.50
2023-04-06T23:52:23.814Z,6.40
2023-04-06T23:54:52.465Z,6.80
2023-04-06T23:57:20.828Z,7.03
2023-04-06T23:59:49.149Z,6.60
